createdAt,value
2018-06-12T00:00:09.854Z,1005.84
2018-06-12T00:05:05.896Z,1005.90
2018-06-12T00:10:01.600Z,1005.72
2018-06-12T00:14:58.809Z,1005.76
2018-06-12T00:19:54.355Z,1005.75
2018-06-12T00:24:50.294Z,1005.72
2018-06-12T00:29:46.160Z,1005.71
2018-06-12T00:34:42.063Z,1005.60
2018-06-12T00:39:39.069Z,1005.62
2018-06-12T00:44:34.231Z,1005.53
2018-06-12T00:49:31.080Z,1005.60
2018-06-12T00:54:26.649Z,1005.74
2018-06-12T00:59:22.475Z,1005.74
2018-06-12T01:04:19.166Z,1005.84
2018-06-12T01:09:15.614Z,1005.84
2018-06-12T01:14:11.135Z,1005.93
2018-06-12T01:19:07.074Z,1005.92
2018-06-12T01:24:02.770Z,1005.99
2018-06-12T01:28:58.611Z,1006.02
2018-06-12T01:33:55.765Z,1006.04
2018-06-12T01:38:51.382Z,1006.00
2018-06-12T01:43:47.509Z,1005.97
2018-06-12T01:48:44.238Z,1006.09
2018-06-12T01:53:40.051Z,1005.92
2018-06-12T01:58:35.753Z,1005.89
2018-06-12T02:03:31.485Z,1006.05
2018-06-12T02:08:27.238Z,1005.89
2018-06-12T02:13:24.435Z,1006.10
2018-06-12T02:18:20.920Z,1006.21
2018-06-12T02:23:16.393Z,1006.10
2018-06-12T02:28:13.725Z,1006.17
2018-06-12T02:33:10.720Z,1006.13
2018-06-12T02:38:06.327Z,1006.11
2018-06-12T02:43:02.606Z,1006.18
2018-06-12T02:47:59.490Z,1006.16
2018-06-12T02:52:56.466Z,1006.11
2018-06-12T02:57:52.098Z,1006.20
2018-06-12T03:02:47.859Z,1006.27
2018-06-12T03:07:43.628Z,1006.20
2018-06-12T03:12:39.551Z,1006.15
2018-06-12T03:17:35.089Z,1006.18
2018-06-12T03:22:30.928Z,1006.09
2018-06-12T03:27:26.746Z,1006.13
2018-06-12T03:32:23.880Z,1006.23
2018-06-12T03:37:19.337Z,1006.25
2018-06-12T03:42:15.233Z,1006.30
2018-06-12T03:47:11.210Z,1006.27
2018-06-12T03:52:07.116Z,1006.35
2018-06-12T03:57:02.952Z,1006.37
2018-06-12T04:02:00.088Z,1006.34
2018-06-12T04:06:56.476Z,1006.34
2018-06-12T04:11:52.237Z,1006.40
2018-06-12T04:16:49.371Z,1006.31
2018-06-12T04:21:45.120Z,1006.34
2018-06-12T04:26:40.934Z,1006.41
2018-06-12T04:31:36.709Z,1006.38
2018-06-12T04:36:32.700Z,1006.32
2018-06-12T04:41:28.617Z,1006.28
2018-06-12T04:46:25.542Z,1006.34
2018-06-12T04:51:21.193Z,1006.36
2018-06-12T04:56:18.220Z,1006.45
2018-06-12T05:01:13.762Z,1006.46
2018-06-12T05:06:09.375Z,1006.41
2018-06-12T05:11:05.260Z,1006.43
2018-06-12T05:16:01.290Z,1006.56
2018-06-12T05:20:57.445Z,1006.50
2018-06-12T05:25:53.466Z,1006.55
2018-06-12T05:30:49.101Z,1006.55
2018-06-12T05:35:47.277Z,1006.63
2018-06-12T05:40:44.433Z,1006.71
2018-06-12T05:45:40.190Z,1006.71
2018-06-12T05:50:37.275Z,1006.70
2018-06-12T05:55:33.992Z,1006.73
2018-06-12T06:00:29.468Z,1006.74
2018-06-12T06:05:26.573Z,1006.70
2018-06-12T06:10:22.381Z,1006.77
2018-06-12T06:15:18.382Z,1006.92
2018-06-12T06:20:14.702Z,1006.96
2018-06-12T06:25:10.870Z,1006.95
2018-06-12T06:30:06.902Z,1006.93
2018-06-12T06:35:02.893Z,1006.93
2018-06-12T06:39:59.551Z,1006.91
2018-06-12T06:44:54.854Z,1006.94
2018-06-12T06:49:51.126Z,1007.03
2018-06-12T06:54:48.061Z,1006.97
2018-06-12T06:59:44.953Z,1006.91
2018-06-12T07:04:42.056Z,1006.77
2018-06-12T07:09:38.668Z,1006.85
2018-06-12T07:14:36.204Z,1006.89
2018-06-12T07:19:32.519Z,1006.84
2018-06-12T07:24:28.843Z,1006.83
2018-06-12T07:29:24.817Z,1006.84
2018-06-12T07:34:20.730Z,1006.82
2018-06-12T07:39:16.396Z,1006.76
2018-06-12T07:44:13.360Z,1006.82
2018-06-12T07:49:08.966Z,1006.87
2018-06-12T07:54:06.664Z,1006.81
2018-06-12T07:59:02.789Z,1006.94
2018-06-12T08:04:01.102Z,1006.85
2018-06-12T08:08:58.430Z,1006.91
2018-06-12T08:13:59.964Z,1006.87
2018-06-12T08:18:56.445Z,1006.90
2018-06-12T08:23:52.340Z,1006.94
2018-06-12T08:28:48.318Z,1006.94
2018-06-12T08:33:45.038Z,1006.85
2018-06-12T08:38:41.426Z,1006.88
2018-06-12T08:43:36.906Z,1006.81
2018-06-12T08:48:33.179Z,1006.79
2018-06-12T08:53:33.925Z,1006.62
2018-06-12T08:58:29.514Z,1006.73
2018-06-12T09:03:25.721Z,1006.80
2018-06-12T09:08:22.686Z,1006.79
2018-06-12T09:13:20.367Z,1006.84
2018-06-12T09:18:17.761Z,1006.85
2018-06-12T09:23:15.341Z,1006.77
2018-06-12T09:28:11.931Z,1006.89
2018-06-12T09:33:11.562Z,1006.84
2018-06-12T09:38:05.967Z,1006.92
2018-06-12T09:43:07.246Z,1006.91
2018-06-12T09:48:03.452Z,1006.99
2018-06-12T09:53:04.221Z,1006.94
2018-06-12T09:58:01.224Z,1006.95
2018-06-12T10:02:56.967Z,1006.89
2018-06-12T10:07:55.203Z,1007.00
2018-06-12T10:12:51.948Z,1007.03
2018-06-12T10:17:49.906Z,1007.09
2018-06-12T10:22:45.158Z,1007.02
2018-06-12T10:27:45.310Z,1007.09
2018-06-12T10:32:44.314Z,1007.10
2018-06-12T10:37:40.943Z,1007.04
2018-06-12T10:42:36.035Z,1007.08
2018-06-12T10:47:34.425Z,1007.06
2018-06-12T10:52:30.901Z,1007.11
2018-06-12T10:57:26.854Z,1007.08
2018-06-12T11:02:26.122Z,1007.03
2018-06-12T11:07:21.845Z,1007.02
2018-06-12T11:12:18.249Z,1006.97
2018-06-12T11:17:15.467Z,1006.97
2018-06-12T11:22:12.360Z,1006.95
2018-06-12T11:27:08.253Z,1007.00
2018-06-12T11:32:07.756Z,1006.89
2018-06-12T11:37:04.708Z,1006.97
2018-06-12T11:42:01.026Z,1006.90
2018-06-12T11:46:57.852Z,1006.81
2018-06-12T11:51:53.202Z,1006.81
2018-06-12T11:56:49.072Z,1006.81
2018-06-12T12:01:45.210Z,1006.78
2018-06-12T12:06:41.499Z,1006.74
2018-06-12T12:11:39.422Z,1006.70
2018-06-12T12:16:35.646Z,1006.83
2018-06-12T12:21:31.489Z,1006.91
2018-06-12T12:26:27.247Z,1006.95
2018-06-12T12:31:24.353Z,1006.96
2018-06-12T12:36:21.504Z,1006.92
2018-06-12T12:41:20.008Z,1006.95
2018-06-12T12:46:16.227Z,1006.86
2018-06-12T12:51:11.752Z,1006.84
2018-06-12T12:56:09.876Z,1006.83
2018-06-12T13:01:05.316Z,1006.73
2018-06-12T13:06:04.149Z,1006.80
2018-06-12T13:10:59.164Z,1006.70
2018-06-12T13:15:54.826Z,1006.79
2018-06-12T13:20:51.451Z,1006.72
2018-06-12T13:25:46.901Z,1006.72
2018-06-12T13:30:42.862Z,1006.81
2018-06-12T13:35:38.770Z,1006.77
2018-06-12T13:40:34.603Z,1006.77
2018-06-12T13:45:30.520Z,1006.71
2018-06-12T13:50:26.630Z,1006.62
2018-06-12T13:55:23.372Z,1006.67
2018-06-12T14:00:19.355Z,1006.70
2018-06-12T14:05:15.072Z,1006.72
2018-06-12T14:10:11.978Z,1006.68
2018-06-12T14:15:07.514Z,1006.62
2018-06-12T14:20:03.454Z,1006.62
2018-06-12T14:25:03.312Z,1006.61
2018-06-12T14:29:58.876Z,1006.66
2018-06-12T14:34:55.530Z,1006.63
2018-06-12T14:39:52.885Z,1006.69
2018-06-12T14:44:48.664Z,1006.62
2018-06-12T14:49:48.889Z,1006.54
2018-06-12T14:54:44.713Z,1006.49
2018-06-12T14:59:40.315Z,1006.57
2018-06-12T15:04:35.986Z,1006.48
2018-06-12T15:09:32.032Z,1006.39
2018-06-12T15:14:27.718Z,1006.33
2018-06-12T15:19:23.733Z,1006.43
2018-06-12T15:24:19.699Z,1006.37
2018-06-12T15:29:15.798Z,1006.44
2018-06-12T15:34:11.850Z,1006.30
2018-06-12T15:39:07.781Z,1006.31
2018-06-12T15:44:05.807Z,1006.26
2018-06-12T15:49:01.920Z,1006.32
2018-06-12T15:53:57.928Z,1006.26
2018-06-12T15:58:54.177Z,1006.20
2018-06-12T16:03:50.588Z,1006.28
2018-06-12T16:08:46.111Z,1006.20
2018-06-12T16:13:42.010Z,1006.24
2018-06-12T16:18:38.748Z,1006.39
2018-06-12T16:23:34.096Z,1006.25
2018-06-12T16:28:31.518Z,1006.21
2018-06-12T16:33:27.165Z,1006.27
2018-06-12T16:38:23.298Z,1006.26
2018-06-12T16:43:19.938Z,1006.36
2018-06-12T16:48:15.674Z,1006.23
2018-06-12T16:53:16.330Z,1006.27
2018-06-12T16:58:10.850Z,1006.22
2018-06-12T17:03:06.398Z,1006.29
2018-06-12T17:08:03.670Z,1006.33
2018-06-12T17:12:58.816Z,1006.27
2018-06-12T17:17:55.188Z,1006.30
2018-06-12T17:22:51.818Z,1006.35
2018-06-12T17:27:47.396Z,1006.39
2018-06-12T17:32:44.232Z,1006.42
2018-06-12T17:37:39.612Z,1006.39
2018-06-12T17:42:35.488Z,1006.29
2018-06-12T17:47:31.520Z,1006.43
2018-06-12T17:52:27.344Z,1006.41
2018-06-12T17:57:23.122Z,1006.50
2018-06-12T18:02:18.963Z,1006.52
2018-06-12T18:07:16.741Z,1006.63
2018-06-12T18:12:13.077Z,1006.60
2018-06-12T18:17:08.446Z,1006.64
2018-06-12T18:22:04.274Z,1006.66
2018-06-12T18:27:00.024Z,1006.57
2018-06-12T18:31:56.837Z,1006.62
2018-06-12T18:36:52.271Z,1006.65
2018-06-12T18:41:48.117Z,1006.62
2018-06-12T18:46:44.038Z,1006.62
2018-06-12T18:51:40.108Z,1006.63
2018-06-12T18:56:35.658Z,1006.70
2018-06-12T19:01:32.166Z,1006.76
2018-06-12T19:06:28.022Z,1006.72
2018-06-12T19:11:23.836Z,1006.78
2018-06-12T19:16:20.799Z,1006.90
2018-06-12T19:21:16.289Z,1006.96
2018-06-12T19:26:13.046Z,1007.02
2018-06-12T19:31:09.441Z,1007.08
2018-06-12T19:36:06.348Z,1007.07
2018-06-12T19:41:02.937Z,1007.10
2018-06-12T19:45:58.871Z,1007.15
2018-06-12T19:50:55.625Z,1007.23
2018-06-12T19:55:51.947Z,1007.25
2018-06-12T20:00:47.262Z,1007.37
2018-06-12T20:05:43.151Z,1007.33
2018-06-12T20:10:39.227Z,1007.31
2018-06-12T20:15:35.276Z,1007.46
2018-06-12T20:20:30.841Z,1007.43
2018-06-12T20:25:28.169Z,1007.42
2018-06-12T20:30:23.341Z,1007.56
2018-06-12T20:35:19.757Z,1007.60
2018-06-12T20:40:16.155Z,1007.48
2018-06-12T20:45:13.252Z,1007.50
2018-06-12T20:50:08.692Z,1007.47
2018-06-12T20:55:04.894Z,1007.51
2018-06-12T21:00:00.689Z,1007.59
2018-06-12T21:04:56.604Z,1007.58
2018-06-12T21:09:53.535Z,1007.61
2018-06-12T21:14:50.238Z,1007.44
2018-06-12T21:19:45.991Z,1007.53
2018-06-12T21:24:41.828Z,1007.46
2018-06-12T21:29:39.061Z,1007.54
2018-06-12T21:34:34.225Z,1007.48
2018-06-12T21:39:30.989Z,1007.51
2018-06-12T21:44:26.787Z,1007.46
2018-06-12T21:49:22.093Z,1007.55
2018-06-12T21:54:17.987Z,1007.50
2018-06-12T21:59:15.161Z,1007.45
2018-06-12T22:04:11.606Z,1007.44
2018-06-12T22:09:06.973Z,1007.41
2018-06-12T22:14:02.555Z,1007.50
2018-06-12T22:18:58.599Z,1007.37
2018-06-12T22:23:54.998Z,1007.48
2018-06-12T22:28:51.978Z,1007.53
2018-06-12T22:33:52.533Z,1007.47
2018-06-12T22:38:48.511Z,1007.57
2018-06-12T22:43:44.287Z,1007.58
2018-06-12T22:48:40.994Z,1007.71
2018-06-12T22:53:40.703Z,1007.73
2018-06-12T22:58:35.585Z,1007.71
2018-06-12T23:03:32.341Z,1007.67
2018-06-12T23:08:28.423Z,1007.71
2018-06-12T23:13:24.984Z,1007.67
2018-06-12T23:18:20.569Z,1007.70
2018-06-12T23:23:16.441Z,1007.73
2018-06-12T23:28:13.239Z,1007.81
2018-06-12T23:33:08.699Z,1007.85
2018-06-12T23:38:05.648Z,1007.59
2018-06-12T23:43:01.274Z,1007.69
2018-06-12T23:47:56.908Z,1007.68
2018-06-12T23:52:52.723Z,1007.62
2018-06-12T23:57:48.672Z,1007.68
